sensor_id;sensor_type;location;lat;lon;timestamp;temperature;humidity
42989;DHT22;28622;43.716;20.668;2022-11-03T00:01:06;10.00;99.90
42989;DHT22;28622;43.716;20.668;2022-11-03T00:03:32;10.00;99.90
42989;DHT22;28622;43.716;20.668;2022-11-03T00:05:57;9.90;99.90
42989;DHT22;28622;43.716;20.668;2022-11-03T00:08:34;9.90;99.90
42989;DHT22;28622;43.716;20.668;2022-11-03T00:13:27;9.20;99.90
42989;DHT22;28622;43.716;20.668;2022-11-03T00:15:53;9.60;99.90
42989;DHT22;28622;43.716;20.668;2022-11-03T00:18:19;9.40;99.90
42989;DHT22;28622;43.716;20.668;2022-11-03T00:20:44;9.30;99.90
42989;DHT22;28622;43.716;20.668;2022-11-03T00:23:10;9.30;99.90
42989;DHT22;28622;43.716;20.668;2022-11-03T00:25:36;9.30;99.90
42989;DHT22;28622;43.716;20.668;2022-11-03T00:28:01;9.30;99.90
42989;DHT22;28622;43.716;20.668;2022-11-03T00:30:27;9.30;99.90
42989;DHT22;28622;43.716;20.668;2022-11-03T00:32:53;9.30;99.90
42989;DHT22;28622;43.716;20.668;2022-11-03T00:35:18;9.40;99.90
42989;DHT22;28622;43.716;20.668;2022-11-03T00:37:44;9.50;99.90
42989;DHT22;28622;43.716;20.668;2022-11-03T00:40:10;9.60;99.90
42989;DHT22;28622;43.716;20.668;2022-11-03T00:42:36;9.60;99.90
42989;DHT22;28622;43.716;20.668;2022-11-03T00:45:03;9.70;99.90
42989;DHT22;28622;43.716;20.668;2022-11-03T00:47:29;9.80;99.90
42989;DHT22;28622;43.716;20.668;2022-11-03T00:49:55;9.80;99.90
42989;DHT22;28622;43.716;20.668;2022-11-03T00:52:20;9.90;99.90
42989;DHT22;28622;43.716;20.668;2022-11-03T00:54:46;10.00;99.90
42989;DHT22;28622;43.716;20.668;2022-11-03T00:57:12;10.10;99.90
42989;DHT22;28622;43.716;20.668;2022-11-03T00:59:44;10.20;99.90
42989;DHT22;28622;43.716;20.668;2022-11-03T01:02:10;10.20;99.90
42989;DHT22;28622;43.716;20.668;2022-11-03T01:04:36;10.20;99.90
42989;DHT22;28622;43.716;20.668;2022-11-03T01:07:20;10.30;99.90
42989;DHT22;28622;43.716;20.668;2022-11-03T01:09:46;10.40;99.90
42989;DHT22;28622;43.716;20.668;2022-11-03T01:12:17;10.40;99.90
42989;DHT22;28622;43.716;20.668;2022-11-03T01:14:51;10.40;99.90
42989;DHT22;28622;43.716;20.668;2022-11-03T01:17:25;10.40;99.90
42989;DHT22;28622;43.716;20.668;2022-11-03T01:19:52;10.50;99.90
42989;DHT22;28622;43.716;20.668;2022-11-03T01:22:18;10.60;99.90
42989;DHT22;28622;43.716;20.668;2022-11-03T01:24:45;10.60;99.90
42989;DHT22;28622;43.716;20.668;2022-11-03T01:27:14;10.60;99.90
42989;DHT22;28622;43.716;20.668;2022-11-03T01:29:40;10.60;99.90
42989;DHT22;28622;43.716;20.668;2022-11-03T01:32:06;10.60;99.90
42989;DHT22;28622;43.716;20.668;2022-11-03T01:34:36;10.60;99.90
42989;DHT22;28622;43.716;20.668;2022-11-03T01:37:02;10.60;99.90
42989;DHT22;28622;43.716;20.668;2022-11-03T01:39:28;10.60;99.90
42989;DHT22;28622;43.716;20.668;2022-11-03T01:41:54;10.60;99.90
42989;DHT22;28622;43.716;20.668;2022-11-03T01:44:28;10.60;99.90
42989;DHT22;28622;43.716;20.668;2022-11-03T01:47:19;10.60;99.90
42989;DHT22;28622;43.716;20.668;2022-11-03T01:50:10;10.60;99.90
42989;DHT22;28622;43.716;20.668;2022-11-03T01:52:48;10.60;99.90
42989;DHT22;28622;43.716;20.668;2022-11-03T01:55:21;10.60;99.90
42989;DHT22;28622;43.716;20.668;2022-11-03T02:00:16;10.60;99.90
42989;DHT22;28622;43.716;20.668;2022-11-03T02:02:43;10.60;99.90
42989;DHT22;28622;43.716;20.668;2022-11-03T02:05:09;10.60;99.90
42989;DHT22;28622;43.716;20.668;2022-11-03T02:07:56;10.50;99.90
42989;DHT22;28622;43.716;20.668;2022-11-03T02:10:24;10.50;99.90
42989;DHT22;28622;43.716;20.668;2022-11-03T02:12:49;10.50;99.90
42989;DHT22;28622;43.716;20.668;2022-11-03T02:15:18;10.50;99.90
42989;DHT22;28622;43.716;20.668;2022-11-03T02:17:47;10.50;99.90
42989;DHT22;28622;43.716;20.668;2022-11-03T02:20:28;10.60;99.90
42989;DHT22;28622;43.716;20.668;2022-11-03T02:23:26;10.60;99.90
42989;DHT22;28622;43.716;20.668;2022-11-03T02:25:57;10.70;99.90
42989;DHT22;28622;43.716;20.668;2022-11-03T02:28:27;10.70;99.90
42989;DHT22;28622;43.716;20.668;2022-11-03T02:31:22;10.70;99.90
42989;DHT22;28622;43.716;20.668;2022-11-03T02:36:53;10.80;99.90
42989;DHT22;28622;43.716;20.668;2022-11-03T02:39:33;10.70;99.90
42989;DHT22;28622;43.716;20.668;2022-11-03T02:42:02;10.70;99.90
42989;DHT22;28622;43.716;20.668;2022-11-03T02:44:31;10.70;99.90
42989;DHT22;28622;43.716;20.668;2022-11-03T02:47:00;10.60;99.90
42989;DHT22;28622;43.716;20.668;2022-11-03T02:49:27;10.60;99.90
42989;DHT22;28622;43.716;20.668;2022-11-03T02:52:03;10.60;99.90
42989;DHT22;28622;43.716;20.668;2022-11-03T02:54:34;10.50;99.90
42989;DHT22;28622;43.716;20.668;2022-11-03T02:57:20;10.60;99.90
42989;DHT22;28622;43.716;20.668;2022-11-03T03:00:07;10.60;99.90
42989;DHT22;28622;43.716;20.668;2022-11-03T03:02:41;10.60;99.90
42989;DHT22;28622;43.716;20.668;2022-11-03T03:05:10;10.60;99.90
42989;DHT22;28622;43.716;20.668;2022-11-03T03:07:40;10.60;99.90
42989;DHT22;28622;43.716;20.668;2022-11-03T03:10:17;10.60;99.90
42989;DHT22;28622;43.716;20.668;2022-11-03T03:12:50;10.60;99.90
42989;DHT22;28622;43.716;20.668;2022-11-03T03:15:18;10.60;99.90
42989;DHT22;28622;43.716;20.668;2022-11-03T03:18:21;10.70;99.90
42989;DHT22;28622;43.716;20.668;2022-11-03T03:21:00;10.60;99.90
42989;DHT22;28622;43.716;20.668;2022-11-03T03:23:31;10.60;99.90
42989;DHT22;28622;43.716;20.668;2022-11-03T03:26:11;10.60;99.90
42989;DHT22;28622;43.716;20.668;2022-11-03T03:28:47;10.70;99.90
42989;DHT22;28622;43.716;20.668;2022-11-03T03:31:14;10.60;99.90
42989;DHT22;28622;43.716;20.668;2022-11-03T03:33:41;10.50;99.90
42989;DHT22;28622;43.716;20.668;2022-11-03T03:36:12;10.50;99.90
42989;DHT22;28622;43.716;20.668;2022-11-03T03:38:42;10.60;99.90
42989;DHT22;28622;43.716;20.668;2022-11-03T03:41:12;10.60;99.90
42989;DHT22;28622;43.716;20.668;2022-11-03T03:43:49;10.60;99.90
42989;DHT22;28622;43.716;20.668;2022-11-03T03:46:17;10.60;99.90
42989;DHT22;28622;43.716;20.668;2022-11-03T03:48:45;10.60;99.90
42989;DHT22;28622;43.716;20.668;2022-11-03T03:51:14;10.60;99.90
42989;DHT22;28622;43.716;20.668;2022-11-03T03:53:41;10.60;99.90
42989;DHT22;28622;43.716;20.668;2022-11-03T03:56:07;10.60;99.90
42989;DHT22;28622;43.716;20.668;2022-11-03T03:58:33;10.70;99.90
42989;DHT22;28622;43.716;20.668;2022-11-03T04:00:58;10.60;99.90
42989;DHT22;28622;43.716;20.668;2022-11-03T04:03:25;10.60;99.90
42989;DHT22;28622;43.716;20.668;2022-11-03T04:05:53;10.70;99.90
42989;DHT22;28622;43.716;20.668;2022-11-03T04:08:19;10.70;99.90
42989;DHT22;28622;43.716;20.668;2022-11-03T04:10:45;10.70;99.90
42989;DHT22;28622;43.716;20.668;2022-11-03T04:13:31;10.70;99.90
42989;DHT22;28622;43.716;20.668;2022-11-03T04:16:16;10.70;99.90
42989;DHT22;28622;43.716;20.668;2022-11-03T04:19:00;10.70;99.90
42989;DHT22;28622;43.716;20.668;2022-11-03T04:21:45;10.70;99.90
42989;DHT22;28622;43.716;20.668;2022-11-03T04:24:29;10.60;99.90
42989;DHT22;28622;43.716;20.668;2022-11-03T04:27:14;10.60;99.90
42989;DHT22;28622;43.716;20.668;2022-11-03T04:29:42;10.70;99.90
42989;DHT22;28622;43.716;20.668;2022-11-03T04:32:13;10.70;99.90
42989;DHT22;28622;43.716;20.668;2022-11-03T04:34:41;10.70;99.90
42989;DHT22;28622;43.716;20.668;2022-11-03T04:37:14;10.70;99.90
42989;DHT22;28622;43.716;20.668;2022-11-03T04:39:40;10.70;99.90
42989;DHT22;28622;43.716;20.668;2022-11-03T04:42:18;10.70;99.90
42989;DHT22;28622;43.716;20.668;2022-11-03T04:44:46;10.70;99.90
42989;DHT22;28622;43.716;20.668;2022-11-03T04:47:13;10.70;99.90
42989;DHT22;28622;43.716;20.668;2022-11-03T04:49:40;10.70;99.90
42989;DHT22;28622;43.716;20.668;2022-11-03T04:52:16;10.70;99.90
42989;DHT22;28622;43.716;20.668;2022-11-03T04:54:46;10.70;99.90
42989;DHT22;28622;43.716;20.668;2022-11-03T04:57:15;10.70;99.90
42989;DHT22;28622;43.716;20.668;2022-11-03T04:59:43;10.80;99.90
42989;DHT22;28622;43.716;20.668;2022-11-03T05:02:13;10.80;99.90
42989;DHT22;28622;43.716;20.668;2022-11-03T05:04:43;10.80;99.90
42989;DHT22;28622;43.716;20.668;2022-11-03T05:07:32;10.70;99.90
42989;DHT22;28622;43.716;20.668;2022-11-03T05:09:59;10.70;99.90
42989;DHT22;28622;43.716;20.668;2022-11-03T05:12:25;10.70;99.90
42989;DHT22;28622;43.716;20.668;2022-11-03T05:14:52;10.70;99.90
42989;DHT22;28622;43.716;20.668;2022-11-03T05:17:26;10.70;99.90
42989;DHT22;28622;43.716;20.668;2022-11-03T05:20:02;10.70;99.90
42989;DHT22;28622;43.716;20.668;2022-11-03T05:22:33;10.60;99.90
42989;DHT22;28622;43.716;20.668;2022-11-03T05:28:00;10.70;99.90
42989;DHT22;28622;43.716;20.668;2022-11-03T05:30:26;10.70;99.90
42989;DHT22;28622;43.716;20.668;2022-11-03T05:32:52;10.60;99.90
42989;DHT22;28622;43.716;20.668;2022-11-03T05:35:22;10.60;99.90
42989;DHT22;28622;43.716;20.668;2022-11-03T05:37:48;10.50;99.90
42989;DHT22;28622;43.716;20.668;2022-11-03T05:40:25;10.50;99.90
42989;DHT22;28622;43.716;20.668;2022-11-03T05:42:58;10.50;99.90
42989;DHT22;28622;43.716;20.668;2022-11-03T05:45:34;10.40;99.90
42989;DHT22;28622;43.716;20.668;2022-11-03T05:48:02;10.40;99.90
42989;DHT22;28622;43.716;20.668;2022-11-03T05:50:33;10.40;99.90
42989;DHT22;28622;43.716;20.668;2022-11-03T05:55:30;10.30;99.90
42989;DHT22;28622;43.716;20.668;2022-11-03T05:58:10;10.30;99.90
42989;DHT22;28622;43.716;20.668;2022-11-03T06:00:40;10.40;99.90
42989;DHT22;28622;43.716;20.668;2022-11-03T06:03:08;10.40;99.90
42989;DHT22;28622;43.716;20.668;2022-11-03T06:05:34;10.40;99.90
42989;DHT22;28622;43.716;20.668;2022-11-03T06:08:02;10.40;99.90
42989;DHT22;28622;43.716;20.668;2022-11-03T06:10:39;10.30;99.90
42989;DHT22;28622;43.716;20.668;2022-11-03T06:13:19;10.30;99.90
42989;DHT22;28622;43.716;20.668;2022-11-03T06:15:47;10.30;99.90
42989;DHT22;28622;43.716;20.668;2022-11-03T06:18:20;10.20;99.90
42989;DHT22;28622;43.716;20.668;2022-11-03T06:20:55;10.20;99.90
42989;DHT22;28622;43.716;20.668;2022-11-03T06:23:22;10.10;99.90
42989;DHT22;28622;43.716;20.668;2022-11-03T06:25:49;10.10;99.90
42989;DHT22;28622;43.716;20.668;2022-11-03T06:28:24;10.10;99.90
42989;DHT22;28622;43.716;20.668;2022-11-03T06:30:51;10.20;99.90
42989;DHT22;28622;43.716;20.668;2022-11-03T06:33:24;10.10;99.90
42989;DHT22;28622;43.716;20.668;2022-11-03T06:35:54;10.10;99.90
42989;DHT22;28622;43.716;20.668;2022-11-03T06:38:26;10.10;99.90
42989;DHT22;28622;43.716;20.668;2022-11-03T06:40:54;10.10;99.90
42989;DHT22;28622;43.716;20.668;2022-11-03T06:43:26;10.10;99.90
42989;DHT22;28622;43.716;20.668;2022-11-03T06:46:00;10.10;99.90
42989;DHT22;28622;43.716;20.668;2022-11-03T06:48:33;10.20;99.90
42989;DHT22;28622;43.716;20.668;2022-11-03T06:51:00;10.20;99.90
42989;DHT22;28622;43.716;20.668;2022-11-03T06:53:31;10.20;99.90
42989;DHT22;28622;43.716;20.668;2022-11-03T06:55:58;10.30;99.90
42989;DHT22;28622;43.716;20.668;2022-11-03T07:00:57;10.30;99.90
42989;DHT22;28622;43.716;20.668;2022-11-03T07:03:30;10.30;99.90
42989;DHT22;28622;43.716;20.668;2022-11-03T07:06:19;10.40;99.90
42989;DHT22;28622;43.716;20.668;2022-11-03T07:08:47;10.40;99.90
42989;DHT22;28622;43.716;20.668;2022-11-03T07:11:25;10.40;99.90
42989;DHT22;28622;43.716;20.668;2022-11-03T07:14:08;10.40;99.90
42989;DHT22;28622;43.716;20.668;2022-11-03T07:19:04;10.40;99.90
42989;DHT22;28622;43.716;20.668;2022-11-03T07:21:35;10.40;99.90
42989;DHT22;28622;43.716;20.668;2022-11-03T07:26:43;10.50;99.90
42989;DHT22;28622;43.716;20.668;2022-11-03T07:29:19;10.50;99.90
42989;DHT22;28622;43.716;20.668;2022-11-03T07:31:47;10.50;99.90
42989;DHT22;28622;43.716;20.668;2022-11-03T07:34:18;10.50;99.90
42989;DHT22;28622;43.716;20.668;2022-11-03T07:36:45;10.60;99.90
42989;DHT22;28622;43.716;20.668;2022-11-03T07:39:15;10.70;99.90
42989;DHT22;28622;43.716;20.668;2022-11-03T07:41:43;10.70;99.90
42989;DHT22;28622;43.716;20.668;2022-11-03T07:44:15;10.70;99.90
42989;DHT22;28622;43.716;20.668;2022-11-03T07:46:42;10.70;99.90
42989;DHT22;28622;43.716;20.668;2022-11-03T07:49:31;10.80;99.90
42989;DHT22;28622;43.716;20.668;2022-11-03T07:51:58;10.70;99.90
42989;DHT22;28622;43.716;20.668;2022-11-03T07:54:29;10.90;99.90
42989;DHT22;28622;43.716;20.668;2022-11-03T07:57:10;11.00;99.90
42989;DHT22;28622;43.716;20.668;2022-11-03T07:59:44;11.30;99.90
42989;DHT22;28622;43.716;20.668;2022-11-03T08:04:58;11.80;99.90
42989;DHT22;28622;43.716;20.668;2022-11-03T08:07:24;12.10;99.90
42989;DHT22;28622;43.716;20.668;2022-11-03T08:09:51;12.20;99.90
42989;DHT22;28622;43.716;20.668;2022-11-03T08:12:16;12.40;99.90
42989;DHT22;28622;43.716;20.668;2022-11-03T08:14:42;12.60;99.90
42989;DHT22;28622;43.716;20.668;2022-11-03T08:17:08;12.50;99.90
42989;DHT22;28622;43.716;20.668;2022-11-03T08:19:34;12.60;99.90
42989;DHT22;28622;43.716;20.668;2022-11-03T08:21:59;12.60;99.90
42989;DHT22;28622;43.716;20.668;2022-11-03T08:24:25;12.70;99.90
42989;DHT22;28622;43.716;20.668;2022-11-03T08:26:51;12.80;99.90
42989;DHT22;28622;43.716;20.668;2022-11-03T08:29:16;12.90;99.90
42989;DHT22;28622;43.716;20.668;2022-11-03T08:31:44;12.90;99.90
42989;DHT22;28622;43.716;20.668;2022-11-03T08:34:10;13.00;99.90
42989;DHT22;28622;43.716;20.668;2022-11-03T08:36:36;13.00;99.90
42989;DHT22;28622;43.716;20.668;2022-11-03T08:39:03;13.00;99.90
42989;DHT22;28622;43.716;20.668;2022-11-03T08:41:29;13.00;99.90
42989;DHT22;28622;43.716;20.668;2022-11-03T08:43:55;13.00;99.90
42989;DHT22;28622;43.716;20.668;2022-11-03T08:46:21;12.90;99.90
42989;DHT22;28622;43.716;20.668;2022-11-03T08:48:47;13.00;99.90
42989;DHT22;28622;43.716;20.668;2022-11-03T08:51:15;12.90;99.90
42989;DHT22;28622;43.716;20.668;2022-11-03T08:53:41;13.00;99.90
42989;DHT22;28622;43.716;20.668;2022-11-03T08:56:07;12.80;99.90
42989;DHT22;28622;43.716;20.668;2022-11-03T08:58:33;12.50;99.90
42989;DHT22;28622;43.716;20.668;2022-11-03T09:00:59;12.40;99.90
42989;DHT22;28622;43.716;20.668;2022-11-03T09:03:25;12.30;99.90
42989;DHT22;28622;43.716;20.668;2022-11-03T09:05:50;12.30;99.90
42989;DHT22;28622;43.716;20.668;2022-11-03T09:08:16;12.50;99.90
42989;DHT22;28622;43.716;20.668;2022-11-03T09:10:42;12.50;99.90
42989;DHT22;28622;43.716;20.668;2022-11-03T09:13:08;12.60;99.90
42989;DHT22;28622;43.716;20.668;2022-11-03T09:15:33;12.80;99.90
42989;DHT22;28622;43.716;20.668;2022-11-03T09:17:59;12.80;99.90
42989;DHT22;28622;43.716;20.668;2022-11-03T09:20:25;12.90;99.90
42989;DHT22;28622;43.716;20.668;2022-11-03T09:22:51;12.80;99.90
42989;DHT22;28622;43.716;20.668;2022-11-03T09:25:18;12.80;99.90
42989;DHT22;28622;43.716;20.668;2022-11-03T09:27:44;12.90;99.90
42989;DHT22;28622;43.716;20.668;2022-11-03T09:30:10;12.90;99.90
42989;DHT22;28622;43.716;20.668;2022-11-03T09:32:36;12.90;99.90
42989;DHT22;28622;43.716;20.668;2022-11-03T09:35:03;12.70;99.90
42989;DHT22;28622;43.716;20.668;2022-11-03T09:37:29;12.80;99.90
42989;DHT22;28622;43.716;20.668;2022-11-03T09:39:55;12.90;99.90
42989;DHT22;28622;43.716;20.668;2022-11-03T09:42:21;12.80;99.90
42989;DHT22;28622;43.716;20.668;2022-11-03T09:44:47;12.80;99.90
42989;DHT22;28622;43.716;20.668;2022-11-03T09:47:26;12.90;99.90
42989;DHT22;28622;43.716;20.668;2022-11-03T09:49:54;13.10;99.90
42989;DHT22;28622;43.716;20.668;2022-11-03T09:52:22;13.20;99.90
42989;DHT22;28622;43.716;20.668;2022-11-03T09:54:51;13.30;99.90
42989;DHT22;28622;43.716;20.668;2022-11-03T09:57:20;13.40;99.90
42989;DHT22;28622;43.716;20.668;2022-11-03T09:59:48;13.40;99.90
42989;DHT22;28622;43.716;20.668;2022-11-03T10:02:24;13.30;99.90
42989;DHT22;28622;43.716;20.668;2022-11-03T10:04:52;13.80;99.90
42989;DHT22;28622;43.716;20.668;2022-11-03T10:07:19;14.70;99.90
42989;DHT22;28622;43.716;20.668;2022-11-03T10:09:48;15.30;99.90
42989;DHT22;28622;43.716;20.668;2022-11-03T10:12:15;15.60;99.90
42989;DHT22;28622;43.716;20.668;2022-11-03T10:14:41;15.90;99.90
42989;DHT22;28622;43.716;20.668;2022-11-03T10:17:14;16.20;99.90
42989;DHT22;28622;43.716;20.668;2022-11-03T10:19:40;16.50;99.90
42989;DHT22;28622;43.716;20.668;2022-11-03T10:22:06;16.60;99.90
42989;DHT22;28622;43.716;20.668;2022-11-03T10:26:58;16.90;99.90
42989;DHT22;28622;43.716;20.668;2022-11-03T10:29:25;17.10;99.90
42989;DHT22;28622;43.716;20.668;2022-11-03T10:34:35;17.70;99.90
42989;DHT22;28622;43.716;20.668;2022-11-03T10:37:21;17.60;99.90
42989;DHT22;28622;43.716;20.668;2022-11-03T10:39:49;17.60;99.90
42989;DHT22;28622;43.716;20.668;2022-11-03T10:42:24;17.70;99.90
42989;DHT22;28622;43.716;20.668;2022-11-03T10:44:52;17.80;99.90
42989;DHT22;28622;43.716;20.668;2022-11-03T10:47:30;18.10;99.90
42989;DHT22;28622;43.716;20.668;2022-11-03T10:49:57;18.20;99.90
42989;DHT22;28622;43.716;20.668;2022-11-03T10:52:25;18.50;99.90
42989;DHT22;28622;43.716;20.668;2022-11-03T10:54:53;18.50;99.90
42989;DHT22;28622;43.716;20.668;2022-11-03T10:57:21;18.20;99.90
42989;DHT22;28622;43.716;20.668;2022-11-03T10:59:49;18.50;99.90
42989;DHT22;28622;43.716;20.668;2022-11-03T11:02:18;18.60;99.90
42989;DHT22;28622;43.716;20.668;2022-11-03T11:04:56;18.80;99.90
42989;DHT22;28622;43.716;20.668;2022-11-03T11:07:37;18.80;99.60
42989;DHT22;28622;43.716;20.668;2022-11-03T11:10:15;19.00;99.60
42989;DHT22;28622;43.716;20.668;2022-11-03T11:15:44;19.10;99.50
42989;DHT22;28622;43.716;20.668;2022-11-03T11:23:45;19.30;98.70
42989;DHT22;28622;43.716;20.668;2022-11-03T11:26:37;19.30;98.10
42989;DHT22;28622;43.716;20.668;2022-11-03T11:31:36;19.50;97.40
42989;DHT22;28622;43.716;20.668;2022-11-03T11:36:36;19.50;97.80
42989;DHT22;28622;43.716;20.668;2022-11-03T11:52:50;20.30;96.20
42989;DHT22;28622;43.716;20.668;2022-11-03T11:55:27;20.30;95.20
42989;DHT22;28622;43.716;20.668;2022-11-03T11:57:54;20.30;95.00
42989;DHT22;28622;43.716;20.668;2022-11-03T12:00:26;20.30;95.10
42989;DHT22;28622;43.716;20.668;2022-11-03T12:02:53;20.30;95.30
42989;DHT22;28622;43.716;20.668;2022-11-03T12:05:29;20.50;94.60
42989;DHT22;28622;43.716;20.668;2022-11-03T12:07:55;20.40;94.30
42989;DHT22;28622;43.716;20.668;2022-11-03T12:10:27;20.30;94.40
42989;DHT22;28622;43.716;20.668;2022-11-03T12:12:54;20.40;94.60
42989;DHT22;28622;43.716;20.668;2022-11-03T12:15:55;20.50;94.30
42989;DHT22;28622;43.716;20.668;2022-11-03T12:18:28;20.40;93.70
42989;DHT22;28622;43.716;20.668;2022-11-03T12:20:54;20.50;94.20
42989;DHT22;28622;43.716;20.668;2022-11-03T12:26:00;20.40;93.50
42989;DHT22;28622;43.716;20.668;2022-11-03T12:28:35;20.40;93.70
42989;DHT22;28622;43.716;20.668;2022-11-03T12:31:02;20.10;93.90
42989;DHT22;28622;43.716;20.668;2022-11-03T12:33:28;20.40;93.80
42989;DHT22;28622;43.716;20.668;2022-11-03T12:35:55;20.40;93.70
42989;DHT22;28622;43.716;20.668;2022-11-03T12:38:21;20.20;93.50
42989;DHT22;28622;43.716;20.668;2022-11-03T12:40:47;20.00;93.60
42989;DHT22;28622;43.716;20.668;2022-11-03T12:43:13;19.90;93.80
42989;DHT22;28622;43.716;20.668;2022-11-03T12:45:39;20.00;94.20
42989;DHT22;28622;43.716;20.668;2022-11-03T12:48:06;20.10;94.80
42989;DHT22;28622;43.716;20.668;2022-11-03T12:50:32;20.10;93.90
42989;DHT22;28622;43.716;20.668;2022-11-03T12:52:58;20.20;93.80
42989;DHT22;28622;43.716;20.668;2022-11-03T12:55:24;20.30;93.60
42989;DHT22;28622;43.716;20.668;2022-11-03T12:57:52;20.40;93.90
42989;DHT22;28622;43.716;20.668;2022-11-03T13:00:18;20.70;93.60
42989;DHT22;28622;43.716;20.668;2022-11-03T13:02:44;20.70;93.60
42989;DHT22;28622;43.716;20.668;2022-11-03T13:05:10;20.80;94.00
42989;DHT22;28622;43.716;20.668;2022-11-03T13:07:45;20.90;92.70
42989;DHT22;28622;43.716;20.668;2022-11-03T13:10:11;20.60;93.10
42989;DHT22;28622;43.716;20.668;2022-11-03T13:12:36;20.60;93.50
42989;DHT22;28622;43.716;20.668;2022-11-03T13:15:07;20.80;93.50
42989;DHT22;28622;43.716;20.668;2022-11-03T13:17:33;20.70;93.40
42989;DHT22;28622;43.716;20.668;2022-11-03T13:19:59;20.60;93.60
42989;DHT22;28622;43.716;20.668;2022-11-03T13:22:25;20.50;93.80
42989;DHT22;28622;43.716;20.668;2022-11-03T13:24:51;20.40;94.10
42989;DHT22;28622;43.716;20.668;2022-11-03T13:27:16;20.50;94.10
42989;DHT22;28622;43.716;20.668;2022-11-03T13:29:42;20.50;94.20
42989;DHT22;28622;43.716;20.668;2022-11-03T13:32:08;20.50;93.90
42989;DHT22;28622;43.716;20.668;2022-11-03T13:34:34;20.50;94.30
42989;DHT22;28622;43.716;20.668;2022-11-03T13:36:59;20.50;93.90
42989;DHT22;28622;43.716;20.668;2022-11-03T13:39:26;20.50;93.90
42989;DHT22;28622;43.716;20.668;2022-11-03T13:41:51;20.40;93.90
42989;DHT22;28622;43.716;20.668;2022-11-03T13:44:17;20.20;93.90
42989;DHT22;28622;43.716;20.668;2022-11-03T13:46:43;20.20;94.10
42989;DHT22;28622;43.716;20.668;2022-11-03T13:49:09;20.20;94.60
42989;DHT22;28622;43.716;20.668;2022-11-03T13:51:34;20.20;94.20
42989;DHT22;28622;43.716;20.668;2022-11-03T13:54:00;20.20;94.30
42989;DHT22;28622;43.716;20.668;2022-11-03T13:56:26;20.00;94.30
42989;DHT22;28622;43.716;20.668;2022-11-03T13:58:52;19.80;94.60
42989;DHT22;28622;43.716;20.668;2022-11-03T14:01:17;19.70;94.80
42989;DHT22;28622;43.716;20.668;2022-11-03T14:03:43;19.50;94.60
42989;DHT22;28622;43.716;20.668;2022-11-03T14:06:09;19.50;94.80
42989;DHT22;28622;43.716;20.668;2022-11-03T14:08:35;19.30;94.80
42989;DHT22;28622;43.716;20.668;2022-11-03T14:11:01;19.20;95.00
42989;DHT22;28622;43.716;20.668;2022-11-03T14:13:47;19.10;95.40
42989;DHT22;28622;43.716;20.668;2022-11-03T14:16:12;19.00;95.50
42989;DHT22;28622;43.716;20.668;2022-11-03T14:18:38;19.00;96.10
42989;DHT22;28622;43.716;20.668;2022-11-03T14:21:04;18.90;96.10
42989;DHT22;28622;43.716;20.668;2022-11-03T14:23:30;18.80;95.90
42989;DHT22;28622;43.716;20.668;2022-11-03T14:25:55;18.80;96.40
42989;DHT22;28622;43.716;20.668;2022-11-03T14:28:21;18.70;96.40
42989;DHT22;28622;43.716;20.668;2022-11-03T14:30:47;18.60;96.30
42989;DHT22;28622;43.716;20.668;2022-11-03T14:33:13;18.50;96.50
42989;DHT22;28622;43.716;20.668;2022-11-03T15:09:59;17.10;99.90
42989;DHT22;28622;43.716;20.668;2022-11-03T15:12:24;17.00;99.90
42989;DHT22;28622;43.716;20.668;2022-11-03T15:14:50;16.80;99.90
42989;DHT22;28622;43.716;20.668;2022-11-03T15:17:16;16.70;99.90
42989;DHT22;28622;43.716;20.668;2022-11-03T15:19:42;16.60;99.90
42989;DHT22;28622;43.716;20.668;2022-11-03T15:22:08;16.60;99.90
42989;DHT22;28622;43.716;20.668;2022-11-03T15:24:33;16.50;99.90
42989;DHT22;28622;43.716;20.668;2022-11-03T15:26:59;16.30;99.90
42989;DHT22;28622;43.716;20.668;2022-11-03T15:29:25;16.20;99.90
42989;DHT22;28622;43.716;20.668;2022-11-03T15:31:51;16.10;99.90
42989;DHT22;28622;43.716;20.668;2022-11-03T15:34:17;16.10;99.90
42989;DHT22;28622;43.716;20.668;2022-11-03T15:36:44;16.00;99.90
42989;DHT22;28622;43.716;20.668;2022-11-03T15:39:10;16.00;99.90
42989;DHT22;28622;43.716;20.668;2022-11-03T15:41:35;16.00;99.90
42989;DHT22;28622;43.716;20.668;2022-11-03T15:44:01;15.90;99.90
42989;DHT22;28622;43.716;20.668;2022-11-03T15:46:27;15.70;99.90
42989;DHT22;28622;43.716;20.668;2022-11-03T15:48:52;15.60;99.90
42989;DHT22;28622;43.716;20.668;2022-11-03T15:51:20;15.50;99.90
42989;DHT22;28622;43.716;20.668;2022-11-03T15:53:46;15.50;99.90
42989;DHT22;28622;43.716;20.668;2022-11-03T15:56:12;15.40;99.90
42989;DHT22;28622;43.716;20.668;2022-11-03T15:58:37;15.20;99.90
42989;DHT22;28622;43.716;20.668;2022-11-03T16:01:04;15.10;99.90
42989;DHT22;28622;43.716;20.668;2022-11-03T16:03:29;15.00;99.90
42989;DHT22;28622;43.716;20.668;2022-11-03T16:05:56;14.90;99.90
42989;DHT22;28622;43.716;20.668;2022-11-03T16:08:22;14.80;99.90
42989;DHT22;28622;43.716;20.668;2022-11-03T16:10:48;14.60;99.90
42989;DHT22;28622;43.716;20.668;2022-11-03T16:13:14;14.50;99.90
42989;DHT22;28622;43.716;20.668;2022-11-03T16:15:39;14.40;99.90
42989;DHT22;28622;43.716;20.668;2022-11-03T16:18:05;14.30;99.90
42989;DHT22;28622;43.716;20.668;2022-11-03T16:20:31;14.20;99.90
42989;DHT22;28622;43.716;20.668;2022-11-03T16:22:57;14.10;99.90
42989;DHT22;28622;43.716;20.668;2022-11-03T16:25:23;13.90;99.90
42989;DHT22;28622;43.716;20.668;2022-11-03T16:27:51;13.80;99.90
42989;DHT22;28622;43.716;20.668;2022-11-03T16:30:17;13.80;99.90
42989;DHT22;28622;43.716;20.668;2022-11-03T16:32:43;13.70;99.90
42989;DHT22;28622;43.716;20.668;2022-11-03T16:35:10;13.70;99.90
42989;DHT22;28622;43.716;20.668;2022-11-03T16:37:35;13.60;99.90
42989;DHT22;28622;43.716;20.668;2022-11-03T16:40:02;13.60;99.90
42989;DHT22;28622;43.716;20.668;2022-11-03T16:42:28;13.70;99.90
42989;DHT22;28622;43.716;20.668;2022-11-03T16:44:54;13.60;99.90
42989;DHT22;28622;43.716;20.668;2022-11-03T16:47:20;13.60;99.90
42989;DHT22;28622;43.716;20.668;2022-11-03T16:49:45;13.60;99.90
42989;DHT22;28622;43.716;20.668;2022-11-03T16:52:11;13.50;99.90
42989;DHT22;28622;43.716;20.668;2022-11-03T16:54:37;13.50;99.90
42989;DHT22;28622;43.716;20.668;2022-11-03T16:57:03;13.40;99.90
42989;DHT22;28622;43.716;20.668;2022-11-03T16:59:28;13.30;99.90
42989;DHT22;28622;43.716;20.668;2022-11-03T17:01:54;13.20;99.90
42989;DHT22;28622;43.716;20.668;2022-11-03T17:04:21;13.20;99.90